Time;durP1;ratioP1;P1;durP2;ratioP2;P2;SDS_P1;SDS_P2;PMS_P1;PMS_P2;Temp;Humidity;BMP_temperature;BMP_pressure;BME280_temperature;BME280_humidity;BME280_pressure;Samples;Min_cycle;Max_cycle;Signal;HPM_P1;HPM_P2
2021/05/12 00:01:40;;;;;;;24.90;10.25;;;;;;;;;;4922125;28;20031;-59
2021/05/12 00:04:16;;;;;;;27.83;11.23;;;;;;;;;;4938637;28;20031;-60
2021/05/12 00:06:41;;;;;;;33.17;11.30;;;;;;;;;;4922550;28;20039;-59
2021/05/12 00:09:07;;;;;;;37.58;11.63;;;;;;;;;;4921259;28;20047;-59
2021/05/12 00:11:33;;;;;;;35.65;11.05;;;;;;;;;;4923224;28;20598;-59
2021/05/12 00:14:01;;;;;;;41.80;13.73;;;;;;;;;;4922447;28;20028;-59
2021/05/12 00:16:28;;;;;;;33.17;11.93;;;;;;;;;;4936521;28;20036;-59
2021/05/12 00:18:56;;;;;;;36.88;12.25;;;;;;;;;;4938056;28;20039;-59
2021/05/12 00:21:31;;;;;;;40.33;12.85;;;;;;;;;;4935469;28;20038;-60
2021/05/12 00:24:02;;;;;;;42.22;14.02;;;;;;;;;;4924856;28;20090;-60
2021/05/12 00:26:41;;;;;;;44.80;14.63;;;;;;;;;;4922612;28;20134;-59
2021/05/12 00:29:13;;;;;;;39.35;13.20;;;;;;;;;;4921168;28;20772;-58
2021/05/12 00:31:40;;;;;;;44.25;13.93;;;;;;;;;;4923737;28;20118;-59
2021/05/12 00:34:06;;;;;;;49.70;14.05;;;;;;;;;;4928453;28;20637;-57
2021/05/12 00:36:37;;;;;;;39.70;14.48;;;;;;;;;;4913268;29;20058;-59
2021/05/12 00:39:06;;;;;;;41.20;14.70;;;;;;;;;;4925019;28;20758;-58
2021/05/12 00:41:34;;;;;;;40.85;13.20;;;;;;;;;;4923663;28;20042;-59
2021/05/12 00:44:00;;;;;;;51.55;17.80;;;;;;;;;;4928701;28;20090;-57
2021/05/12 00:46:28;;;;;;;47.92;17.85;;;;;;;;;;4940274;28;20150;-59
2021/05/12 00:48:56;;;;;;;56.97;16.13;;;;;;;;;;4927533;28;20149;-63
2021/05/12 00:51:21;;;;;;;59.28;17.45;;;;;;;;;;4926738;28;20470;-59
2021/05/12 00:53:49;;;;;;;54.70;18.00;;;;;;;;;;4926779;28;20046;-58
2021/05/12 00:56:15;;;;;;;53.72;18.45;;;;;;;;;;4922936;28;20502;-59
2021/05/12 00:58:43;;;;;;;59.33;16.73;;;;;;;;;;4940044;28;20028;-58
2021/05/12 01:01:13;;;;;;;61.33;17.10;;;;;;;;;;4926756;28;20036;-59
2021/05/12 01:03:41;;;;;;;64.68;18.35;;;;;;;;;;4939676;28;20062;-59
2021/05/12 01:06:19;;;;;;;51.45;17.23;;;;;;;;;;4925385;28;20035;-58
2021/05/12 01:08:47;;;;;;;54.78;17.52;;;;;;;;;;4927647;28;20035;-60
2021/05/12 01:11:13;;;;;;;60.28;17.65;;;;;;;;;;4925052;28;20035;-59
2021/05/12 01:13:39;;;;;;;58.80;16.80;;;;;;;;;;4910741;29;20050;-59
2021/05/12 01:16:04;;;;;;;53.17;16.02;;;;;;;;;;4939026;28;20043;-59
2021/05/12 01:18:29;;;;;;;54.78;16.77;;;;;;;;;;4926059;28;20035;-59
2021/05/12 01:20:55;;;;;;;61.95;17.67;;;;;;;;;;4925731;28;20062;-58
2021/05/12 01:23:24;;;;;;;49.90;15.95;;;;;;;;;;4924934;28;20042;-59
2021/05/12 01:25:51;;;;;;;47.95;17.13;;;;;;;;;;4921919;28;20078;-60
2021/05/12 01:28:17;;;;;;;54.50;17.23;;;;;;;;;;4924883;28;20038;-59
2021/05/12 01:31:09;;;;;;;52.55;16.65;;;;;;;;;;4924557;28;20585;-60
2021/05/12 01:33:36;;;;;;;50.38;15.75;;;;;;;;;;4933901;28;20073;-62
2021/05/12 01:36:02;;;;;;;48.63;15.75;;;;;;;;;;4938987;28;20050;-58
2021/05/12 01:38:28;;;;;;;46.80;15.57;;;;;;;;;;4926291;28;20807;-59
2021/05/12 01:40:54;;;;;;;58.05;16.17;;;;;;;;;;4924077;28;20032;-59
2021/05/12 01:43:22;;;;;;;38.95;13.98;;;;;;;;;;4925783;28;20522;-58
2021/05/12 01:45:52;;;;;;;53.17;15.68;;;;;;;;;;4921668;28;20038;-58
2021/05/12 01:48:18;;;;;;;62.90;16.40;;;;;;;;;;4925341;28;20031;-60
2021/05/12 01:50:48;;;;;;;58.45;16.50;;;;;;;;;;4923497;28;20029;-59
2021/05/12 01:53:14;;;;;;;56.33;16.63;;;;;;;;;;4924645;28;21367;-59
2021/05/12 01:55:43;;;;;;;59.78;17.48;;;;;;;;;;4938735;28;20027;-59
2021/05/12 01:58:09;;;;;;;56.03;17.55;;;;;;;;;;4924712;28;20121;-59
2021/05/12 02:00:39;;;;;;;58.20;18.70;;;;;;;;;;4922904;28;20027;-59
2021/05/12 02:03:10;;;;;;;65.15;17.73;;;;;;;;;;4939819;28;21970;-59
2021/05/12 02:05:37;;;;;;;56.22;16.30;;;;;;;;;;4923501;28;20055;-59
2021/05/12 02:08:10;;;;;;;55.10;16.27;;;;;;;;;;4924882;28;20058;-59
2021/05/12 02:10:37;;;;;;;61.80;16.52;;;;;;;;;;4922406;28;20031;-59
2021/05/12 02:13:06;;;;;;;61.05;15.80;;;;;;;;;;4927726;28;20066;-61
2021/05/12 02:15:34;;;;;;;48.67;17.02;;;;;;;;;;4910724;29;20039;-60
2021/05/12 02:17:59;;;;;;;48.75;15.63;;;;;;;;;;4923693;28;20143;-60
2021/05/12 02:20:26;;;;;;;55.80;16.08;;;;;;;;;;4925695;28;20039;-59
2021/05/12 02:22:55;;;;;;;56.38;15.95;;;;;;;;;;4924334;28;20114;-59
2021/05/12 02:25:20;;;;;;;52.00;14.82;;;;;;;;;;4925168;28;20024;-59
2021/05/12 02:27:47;;;;;;;62.47;16.15;;;;;;;;;;4925475;28;20098;-59
2021/05/12 02:30:13;;;;;;;55.38;14.93;;;;;;;;;;4912399;28;20071;-59
2021/05/12 02:32:44;;;;;;;56.67;15.05;;;;;;;;;;4924634;28;21042;-60
2021/05/12 02:35:13;;;;;;;61.20;16.77;;;;;;;;;;4924381;28;20047;-60
2021/05/12 02:37:39;;;;;;;74.20;16.52;;;;;;;;;;4920940;28;20032;-60
2021/05/12 02:40:13;;;;;;;63.13;15.27;;;;;;;;;;4937964;28;20098;-59
2021/05/12 02:42:42;;;;;;;63.75;16.98;;;;;;;;;;4924056;28;20039;-60
2021/05/12 02:45:08;;;;;;;64.07;18.00;;;;;;;;;;4920233;28;20042;-59
2021/05/12 02:47:34;;;;;;;71.35;16.20;;;;;;;;;;4924814;28;20054;-61
2021/05/12 02:50:03;;;;;;;62.47;15.30;;;;;;;;;;4934493;28;20638;-60
2021/05/12 02:52:31;;;;;;;65.80;17.25;;;;;;;;;;4937404;28;20086;-60
2021/05/12 02:54:59;;;;;;;67.90;16.92;;;;;;;;;;4925703;28;20039;-59
2021/05/12 02:57:25;;;;;;;70.63;17.10;;;;;;;;;;4912565;28;20706;-59
2021/05/12 02:59:53;;;;;;;75.32;17.08;;;;;;;;;;4923647;28;20066;-60
2021/05/12 03:02:18;;;;;;;76.75;17.40;;;;;;;;;;4924118;28;20647;-58
2021/05/12 03:04:44;;;;;;;73.28;19.20;;;;;;;;;;4921792;28;20106;-59
2021/05/12 03:07:12;;;;;;;71.40;17.13;;;;;;;;;;4923747;28;20031;-59
2021/05/12 03:09:39;;;;;;;69.13;17.20;;;;;;;;;;4928339;28;20261;-60
2021/05/12 03:12:05;;;;;;;60.10;17.55;;;;;;;;;;4938060;28;20040;-58
2021/05/12 03:14:33;;;;;;;76.63;17.80;;;;;;;;;;4905073;29;20038;-59
2021/05/12 03:17:01;;;;;;;68.30;17.98;;;;;;;;;;4937540;28;20364;-59
2021/05/12 03:19:29;;;;;;;67.65;17.85;;;;;;;;;;4906591;28;20031;-59
2021/05/12 03:21:58;;;;;;;72.20;16.85;;;;;;;;;;4924017;28;20043;-60
2021/05/12 03:24:24;;;;;;;74.55;18.17;;;;;;;;;;4922892;28;20861;-59
2021/05/12 03:26:50;;;;;;;67.95;17.38;;;;;;;;;;4924148;28;20058;-59
2021/05/12 03:29:15;;;;;;;78.13;18.08;;;;;;;;;;4925569;28;20043;-59
2021/05/12 03:31:41;;;;;;;71.90;18.70;;;;;;;;;;4924868;28;20063;-59
2021/05/12 03:34:08;;;;;;;76.72;18.90;;;;;;;;;;4939883;28;20074;-59
2021/05/12 03:36:34;;;;;;;75.35;17.92;;;;;;;;;;4908399;28;20035;-60
2021/05/12 03:38:59;;;;;;;62.95;17.42;;;;;;;;;;4921482;28;20050;-60
2021/05/12 03:41:25;;;;;;;70.53;18.02;;;;;;;;;;4924410;28;20043;-60
2021/05/12 03:43:53;;;;;;;57.67;16.60;;;;;;;;;;4922802;28;20199;-61
2021/05/12 03:46:20;;;;;;;68.50;17.00;;;;;;;;;;4923299;28;20027;-59
2021/05/12 03:48:46;;;;;;;66.03;16.98;;;;;;;;;;4923103;28;20142;-59
2021/05/12 03:51:12;;;;;;;76.88;18.50;;;;;;;;;;4921217;28;20040;-60
2021/05/12 03:53:38;;;;;;;73.05;17.92;;;;;;;;;;4938075;28;20098;-59
2021/05/12 03:56:06;;;;;;;76.05;17.48;;;;;;;;;;4908365;28;20062;-61
2021/05/12 03:58:32;;;;;;;76.90;18.23;;;;;;;;;;4924303;28;20052;-60
2021/05/12 04:00:59;;;;;;;80.97;16.88;;;;;;;;;;4923102;28;21969;-59
2021/05/12 04:03:27;;;;;;;71.15;18.27;;;;;;;;;;4923965;28;20115;-59
2021/05/12 04:05:53;;;;;;;63.10;16.00;;;;;;;;;;4920954;28;22034;-59
2021/05/12 04:08:23;;;;;;;69.78;17.67;;;;;;;;;;4924255;28;20039;-60
2021/05/12 04:10:49;;;;;;;66.30;16.73;;;;;;;;;;4929736;28;20047;-59
2021/05/12 04:13:14;;;;;;;49.28;15.57;;;;;;;;;;4909870;29;20051;-60
2021/05/12 04:15:40;;;;;;;54.17;16.65;;;;;;;;;;4936346;28;20032;-62
2021/05/12 04:18:09;;;;;;;57.45;16.58;;;;;;;;;;4920414;28;20115;-59
2021/05/12 04:20:37;;;;;;;57.45;16.17;;;;;;;;;;4921831;28;20035;-60
2021/05/12 04:23:05;;;;;;;51.42;17.95;;;;;;;;;;4923064;28;20019;-63
2021/05/12 04:25:31;;;;;;;52.95;14.52;;;;;;;;;;4936517;28;20031;-60
2021/05/12 04:27:59;;;;;;;51.95;14.48;;;;;;;;;;4923114;28;20062;-61
2021/05/12 04:30:30;;;;;;;52.63;14.80;;;;;;;;;;4922841;28;20081;-60
2021/05/12 04:33:13;;;;;;;54.20;15.02;;;;;;;;;;4923834;28;20043;-60
2021/05/12 04:35:38;;;;;;;43.45;15.10;;;;;;;;;;4893419;29;20080;-60
2021/05/12 04:38:07;;;;;;;49.25;14.43;;;;;;;;;;4922269;28;20036;-60
2021/05/12 04:40:35;;;;;;;48.85;15.48;;;;;;;;;;4922698;28;20044;-60
2021/05/12 04:43:01;;;;;;;39.38;13.32;;;;;;;;;;4910412;29;20039;-60
2021/05/12 04:45:26;;;;;;;41.65;14.60;;;;;;;;;;4922160;28;20027;-60
2021/05/12 04:47:55;;;;;;;43.10;14.68;;;;;;;;;;4924584;28;21084;-60
2021/05/12 04:50:24;;;;;;;43.58;14.10;;;;;;;;;;4937091;28;20067;-60
2021/05/12 04:52:50;;;;;;;36.80;13.05;;;;;;;;;;4922196;28;20826;-59
2021/05/12 04:55:21;;;;;;;38.47;13.98;;;;;;;;;;4936308;28;20132;-60
2021/05/12 04:57:47;;;;;;;41.70;12.43;;;;;;;;;;4922453;28;20035;-58
2021/05/12 05:00:14;;;;;;;36.78;12.57;;;;;;;;;;4920694;28;20036;-63
2021/05/12 05:02:40;;;;;;;36.40;13.00;;;;;;;;;;4923504;28;20526;-59
2021/05/12 05:05:09;;;;;;;32.10;13.05;;;;;;;;;;4909608;29;20088;-60
2021/05/12 05:07:38;;;;;;;41.72;14.70;;;;;;;;;;4922679;28;20031;-60
2021/05/12 05:10:04;;;;;;;40.85;14.50;;;;;;;;;;4937137;28;20035;-61
2021/05/12 05:12:32;;;;;;;38.58;12.80;;;;;;;;;;4924449;28;20139;-60
2021/05/12 05:14:59;;;;;;;35.08;13.35;;;;;;;;;;4922363;28;20051;-59
2021/05/12 05:17:28;;;;;;;26.35;11.63;;;;;;;;;;4935176;28;20094;-60
2021/05/12 05:19:54;;;;;;;32.38;12.57;;;;;;;;;;4925671;28;20094;-59
2021/05/12 05:22:20;;;;;;;22.88;10.40;;;;;;;;;;4938626;28;20099;-61
2021/05/12 05:24:49;;;;;;;26.70;10.38;;;;;;;;;;4940344;28;20024;-59
2021/05/12 05:27:14;;;;;;;17.58;8.75;;;;;;;;;;4924267;28;20051;-63
2021/05/12 05:29:40;;;;;;;25.30;10.55;;;;;;;;;;4938865;28;20055;-59
2021/05/12 05:32:05;;;;;;;14.20;8.30;;;;;;;;;;4925217;28;20455;-59
2021/05/12 05:34:36;;;;;;;18.23;9.05;;;;;;;;;;4924920;28;20039;-59
2021/05/12 05:37:02;;;;;;;14.63;7.82;;;;;;;;;;4922249;28;20099;-61
2021/05/12 05:39:35;;;;;;;15.43;8.65;;;;;;;;;;4924016;28;20031;-59
2021/05/12 05:42:01;;;;;;;12.77;7.95;;;;;;;;;;4929038;28;20177;-59
2021/05/12 05:44:27;;;;;;;13.13;7.97;;;;;;;;;;4926844;28;20027;-61
2021/05/12 05:46:53;;;;;;;16.88;8.52;;;;;;;;;;4925328;28;20034;-59
2021/05/12 05:49:18;;;;;;;16.23;8.10;;;;;;;;;;4922745;28;20557;-60
2021/05/12 05:51:44;;;;;;;10.85;7.38;;;;;;;;;;4909951;28;20105;-57
2021/05/12 05:54:10;;;;;;;14.82;8.27;;;;;;;;;;4922323;28;20046;-59
2021/05/12 05:56:38;;;;;;;12.70;7.05;;;;;;;;;;4921412;28;20613;-57
2021/05/12 05:59:04;;;;;;;13.10;7.55;;;;;;;;;;4912195;28;20188;-61
2021/05/12 06:01:32;;;;;;;14.15;7.60;;;;;;;;;;4926611;28;20030;-59
2021/05/12 06:04:03;;;;;;;13.07;7.97;;;;;;;;;;4924156;28;20062;-59
2021/05/12 06:06:31;;;;;;;10.07;7.20;;;;;;;;;;4918760;28;20063;-59
2021/05/12 06:08:57;;;;;;;14.00;6.78;;;;;;;;;;4915752;28;22073;-59
2021/05/12 06:11:22;;;;;;;8.77;6.10;;;;;;;;;;4916523;28;20043;-59
2021/05/12 06:13:49;;;;;;;12.63;6.68;;;;;;;;;;4937831;28;20078;-60
2021/05/12 06:16:21;;;;;;;12.18;6.55;;;;;;;;;;4924712;28;20307;-60
2021/05/12 06:18:51;;;;;;;10.45;6.15;;;;;;;;;;4923268;28;20055;-59
2021/05/12 06:21:17;;;;;;;9.52;5.53;;;;;;;;;;4916429;28;20031;-59
2021/05/12 06:23:42;;;;;;;9.45;6.03;;;;;;;;;;4906122;29;20130;-60
2021/05/12 06:26:21;;;;;;;12.38;5.65;;;;;;;;;;4899603;28;20039;-61
2021/05/12 06:28:52;;;;;;;7.40;5.43;;;;;;;;;;4917357;28;20122;-62
2021/05/12 06:31:18;;;;;;;10.80;5.30;;;;;;;;;;4934360;28;20188;-61
2021/05/12 06:33:54;;;;;;;8.77;5.87;;;;;;;;;;4928556;28;20106;-61
2021/05/12 06:36:19;;;;;;;11.82;5.43;;;;;;;;;;4916200;28;20039;-62
2021/05/12 06:38:47;;;;;;;11.15;5.32;;;;;;;;;;4899673;28;20073;-63
2021/05/12 06:41:13;;;;;;;11.05;5.50;;;;;;;;;;4918147;28;20037;-61
2021/05/12 06:43:38;;;;;;;7.10;4.13;;;;;;;;;;4913981;28;20031;-62
2021/05/12 06:46:04;;;;;;;7.28;4.30;;;;;;;;;;4913656;28;20034;-59
2021/05/12 06:48:30;;;;;;;9.55;4.10;;;;;;;;;;4914189;28;20105;-59
2021/05/12 06:50:56;;;;;;;4.80;3.10;;;;;;;;;;4909140;28;20035;-58
2021/05/12 06:53:26;;;;;;;4.10;2.80;;;;;;;;;;4912972;28;20025;-61
2021/05/12 06:55:52;;;;;;;6.63;3.03;;;;;;;;;;4920018;28;20031;-60
2021/05/12 06:58:18;;;;;;;11.27;2.67;;;;;;;;;;4922244;28;20045;-59
2021/05/12 07:00:48;;;;;;;7.72;2.95;;;;;;;;;;4938598;28;20039;-59
2021/05/12 07:03:14;;;;;;;7.63;2.33;;;;;;;;;;4923663;28;20054;-61
2021/05/12 07:05:43;;;;;;;3.88;2.30;;;;;;;;;;4923008;28;20083;-59
2021/05/12 07:08:09;;;;;;;8.82;2.03;;;;;;;;;;4924560;28;22160;-60
2021/05/12 07:10:34;;;;;;;6.63;2.47;;;;;;;;;;4936980;28;20031;-60
2021/05/12 07:13:00;;;;;;;6.13;1.48;;;;;;;;;;4924193;28;20046;-60
2021/05/12 07:15:28;;;;;;;4.15;2.08;;;;;;;;;;4921345;28;20034;-61
2021/05/12 07:17:54;;;;;;;6.68;2.03;;;;;;;;;;4921585;28;20050;-61
2021/05/12 07:20:20;;;;;;;3.72;2.17;;;;;;;;;;4909680;28;20028;-60
2021/05/12 07:22:47;;;;;;;4.15;1.90;;;;;;;;;;4922635;28;20045;-60
2021/05/12 07:25:16;;;;;;;7.35;1.95;;;;;;;;;;4909206;29;20031;-61
2021/05/12 07:27:46;;;;;;;3.67;1.98;;;;;;;;;;4925031;28;20208;-60
2021/05/12 07:30:12;;;;;;;4.05;1.98;;;;;;;;;;4921053;28;20595;-60
2021/05/12 07:32:38;;;;;;;7.85;2.28;;;;;;;;;;4924721;28;20521;-60
2021/05/12 07:35:07;;;;;;;4.20;1.80;;;;;;;;;;4924566;28;20026;-59
2021/05/12 07:37:36;;;;;;;6.32;1.50;;;;;;;;;;4936653;28;20031;-62
2021/05/12 07:40:01;;;;;;;3.10;1.60;;;;;;;;;;4921683;28;20154;-58
2021/05/12 07:42:27;;;;;;;6.35;1.80;;;;;;;;;;4921241;28;20684;-60
2021/05/12 07:44:52;;;;;;;2.63;1.60;;;;;;;;;;4924235;28;20044;-58
2021/05/12 07:47:18;;;;;;;3.42;1.40;;;;;;;;;;4922257;28;20027;-59
2021/05/12 07:49:44;;;;;;;6.18;1.67;;;;;;;;;;4936391;28;20035;-61
2021/05/12 07:52:14;;;;;;;4.00;0.90;;;;;;;;;;4935311;28;20020;-59
2021/05/12 07:54:42;;;;;;;3.22;0.95;;;;;;;;;;4923719;28;20027;-59
2021/05/12 07:57:09;;;;;;;3.13;1.15;;;;;;;;;;4917822;28;20027;-60
2021/05/12 07:59:34;;;;;;;2.15;1.10;;;;;;;;;;4923161;28;20058;-58
2021/05/12 08:02:03;;;;;;;2.90;1.02;;;;;;;;;;4922046;28;20027;-59
2021/05/12 08:04:32;;;;;;;8.68;0.90;;;;;;;;;;4921622;28;20028;-60
2021/05/12 08:06:58;;;;;;;3.53;0.75;;;;;;;;;;4920848;28;20035;-60
2021/05/12 08:09:24;;;;;;;9.45;1.05;;;;;;;;;;4936171;28;20712;-58
2021/05/12 08:11:50;;;;;;;0.80;0.57;;;;;;;;;;4936864;28;20121;-58
2021/05/12 08:14:19;;;;;;;6.95;1.05;;;;;;;;;;4919579;28;20587;-59
2021/05/12 08:16:47;;;;;;;3.50;0.80;;;;;;;;;;4925905;28;20032;-59
2021/05/12 08:19:14;;;;;;;4.75;0.80;;;;;;;;;;4921729;28;20050;-58
2021/05/12 08:21:39;;;;;;;5.70;0.80;;;;;;;;;;4936327;28;20032;-60
2021/05/12 08:24:05;;;;;;;7.47;0.77;;;;;;;;;;4937761;28;20046;-58
2021/05/12 08:26:33;;;;;;;2.80;0.80;;;;;;;;;;4920855;28;20035;-59
2021/05/12 08:29:01;;;;;;;3.90;0.93;;;;;;;;;;4921326;28;20046;-59
2021/05/12 08:31:27;;;;;;;2.80;0.70;;;;;;;;;;4906361;28;20086;-60
2021/05/12 08:33:55;;;;;;;1.73;0.60;;;;;;;;;;4923505;28;20020;-58
2021/05/12 08:36:23;;;;;;;4.32;0.80;;;;;;;;;;4921333;28;20030;-61
2021/05/12 08:38:49;;;;;;;1.23;0.68;;;;;;;;;;4921140;28;20035;-61
2021/05/12 08:41:18;;;;;;;4.05;0.70;;;;;;;;;;4920015;28;20254;-63
2021/05/12 08:43:44;;;;;;;5.55;0.70;;;;;;;;;;4920050;28;20071;-59
2021/05/12 08:46:11;;;;;;;3.45;0.85;;;;;;;;;;4936839;28;20122;-58
2021/05/12 08:48:37;;;;;;;1.58;0.52;;;;;;;;;;4921195;28;20039;-58
2021/05/12 08:51:05;;;;;;;2.75;0.90;;;;;;;;;;4923311;28;20051;-60
2021/05/12 08:53:32;;;;;;;2.75;0.55;;;;;;;;;;4927324;28;20131;-58
2021/05/12 08:55:58;;;;;;;5.57;0.60;;;;;;;;;;4923552;28;20027;-58
2021/05/12 08:58:24;;;;;;;1.90;0.60;;;;;;;;;;4925684;28;20144;-60
2021/05/12 09:00:52;;;;;;;3.17;0.82;;;;;;;;;;4925601;28;20031;-60
2021/05/12 09:03:17;;;;;;;1.63;0.55;;;;;;;;;;4940602;28;20896;-59
2021/05/12 09:05:43;;;;;;;2.10;0.60;;;;;;;;;;4925439;28;20066;-58
2021/05/12 09:08:11;;;;;;;4.22;0.60;;;;;;;;;;4924690;28;20046;-60
2021/05/12 09:10:36;;;;;;;3.50;1.05;;;;;;;;;;4910236;28;20073;-60
2021/05/12 09:13:02;;;;;;;3.67;0.82;;;;;;;;;;4925115;28;20750;-60
2021/05/12 09:15:30;;;;;;;5.38;0.90;;;;;;;;;;4939621;28;20030;-60
2021/05/12 09:17:57;;;;;;;4.72;0.65;;;;;;;;;;4940167;28;20035;-57
2021/05/12 09:20:26;;;;;;;4.95;0.50;;;;;;;;;;4926286;28;20042;-59
2021/05/12 09:23:01;;;;;;;2.13;0.73;;;;;;;;;;4923874;28;20039;-57
2021/05/12 09:25:29;;;;;;;1.88;0.30;;;;;;;;;;4938520;28;20039;-59
2021/05/12 09:28:15;;;;;;;3.55;0.68;;;;;;;;;;4939124;28;20056;-57
2021/05/12 09:30:43;;;;;;;2.45;0.55;;;;;;;;;;4923154;28;20106;-59
2021/05/12 09:33:23;;;;;;;3.72;0.80;;;;;;;;;;4936866;28;20042;-58
2021/05/12 09:35:49;;;;;;;7.13;1.13;;;;;;;;;;4922705;28;20046;-58
2021/05/12 09:38:18;;;;;;;5.57;1.00;;;;;;;;;;4912271;28;20031;-58
2021/05/12 09:40:47;;;;;;;2.47;0.57;;;;;;;;;;4923609;28;20510;-60
2021/05/12 09:43:24;;;;;;;4.97;1.08;;;;;;;;;;4929500;28;20094;-59
2021/05/12 09:45:53;;;;;;;6.15;1.08;;;;;;;;;;4923707;28;20049;-60
2021/05/12 09:48:19;;;;;;;2.90;0.55;;;;;;;;;;4923577;28;20403;-57
2021/05/12 09:50:46;;;;;;;5.32;1.10;;;;;;;;;;4926526;28;20043;-59
2021/05/12 09:53:15;;;;;;;5.43;0.95;;;;;;;;;;4924649;28;20062;-58
2021/05/12 09:55:48;;;;;;;8.52;0.75;;;;;;;;;;4924647;28;20081;-58
2021/05/12 09:58:27;;;;;;;7.32;1.10;;;;;;;;;;4923569;28;22001;-61
2021/05/12 10:00:55;;;;;;;2.25;0.77;;;;;;;;;;4921241;28;20122;-58
2021/05/12 10:03:24;;;;;;;5.93;1.08;;;;;;;;;;4924467;28;20023;-59
2021/05/12 10:05:50;;;;;;;4.55;0.80;;;;;;;;;;4922642;28;20039;-59
2021/05/12 10:08:31;;;;;;;4.20;1.08;;;;;;;;;;4925093;28;20495;-59
2021/05/12 10:10:57;;;;;;;5.38;1.15;;;;;;;;;;4936907;28;20031;-60
2021/05/12 10:13:23;;;;;;;4.95;0.95;;;;;;;;;;4922960;28;20035;-60
2021/05/12 10:15:49;;;;;;;6.88;1.00;;;;;;;;;;4923266;28;20027;-58
2021/05/12 10:18:17;;;;;;;2.67;0.63;;;;;;;;;;4907027;28;20035;-60
2021/05/12 10:20:43;;;;;;;6.80;1.27;;;;;;;;;;4920674;28;20029;-58
2021/05/12 10:23:09;;;;;;;3.42;0.75;;;;;;;;;;4938864;28;20040;-58
2021/05/12 10:25:40;;;;;;;4.38;0.80;;;;;;;;;;4936891;28;20068;-60
2021/05/12 10:28:10;;;;;;;6.00;1.08;;;;;;;;;;4922833;28;20070;-58
2021/05/12 10:30:36;;;;;;;3.80;0.80;;;;;;;;;;4918986;28;20638;-61
2021/05/12 10:33:02;;;;;;;4.28;0.82;;;;;;;;;;4921238;28;20031;-60
2021/05/12 10:35:45;;;;;;;5.43;0.98;;;;;;;;;;4911989;28;20166;-57
2021/05/12 10:38:32;;;;;;;1.85;0.65;;;;;;;;;;4920718;28;20103;-59
2021/05/12 10:40:58;;;;;;;4.65;1.00;;;;;;;;;;4920978;28;20032;-60
2021/05/12 10:43:35;;;;;;;6.47;1.10;;;;;;;;;;4920426;28;20093;-60
2021/05/12 10:46:06;;;;;;;5.10;1.38;;;;;;;;;;4919276;28;20337;-59
2021/05/12 10:48:48;;;;;;;4.88;1.00;;;;;;;;;;4920527;28;20041;-60
2021/05/12 10:51:20;;;;;;;8.35;1.40;;;;;;;;;;4921131;28;20039;-58
2021/05/12 10:53:49;;;;;;;7.40;1.15;;;;;;;;;;4921936;28;20082;-59
2021/05/12 10:56:15;;;;;;;5.03;0.98;;;;;;;;;;4921438;28;20046;-58
2021/05/12 10:59:00;;;;;;;5.88;1.23;;;;;;;;;;4920193;28;20042;-59
2021/05/12 11:01:27;;;;;;;7.30;1.13;;;;;;;;;;4919124;28;20046;-59
2021/05/12 11:03:52;;;;;;;4.40;0.95;;;;;;;;;;4909784;28;20031;-60
2021/05/12 11:06:25;;;;;;;2.78;0.82;;;;;;;;;;4938340;28;20686;-60
2021/05/12 11:09:08;;;;;;;5.00;1.30;;;;;;;;;;4922294;28;20039;-60
2021/05/12 11:11:43;;;;;;;2.75;1.30;;;;;;;;;;4920551;28;20380;-58
2021/05/12 11:14:28;;;;;;;5.80;1.20;;;;;;;;;;4920826;28;20042;-58
2021/05/12 11:17:03;;;;;;;5.00;1.33;;;;;;;;;;4921967;28;20388;-61
2021/05/12 11:19:52;;;;;;;1.85;0.80;;;;;;;;;;4938474;28;20098;-59
2021/05/12 11:22:32;;;;;;;5.07;1.35;;;;;;;;;;4919630;28;20035;-60
2021/05/12 11:25:04;;;;;;;10.45;1.42;;;;;;;;;;4923172;28;20035;-60
2021/05/12 11:32:24;;;;;;;5.57;0.90;;;;;;;;;;4922709;28;20027;-62
2021/05/12 11:34:51;;;;;;;4.28;0.77;;;;;;;;;;4923463;28;20488;-59
2021/05/12 11:37:23;;;;;;;4.55;1.02;;;;;;;;;;4922735;28;20520;-59
2021/05/12 11:39:52;;;;;;;4.25;1.08;;;;;;;;;;4922644;28;20067;-59
2021/05/12 11:42:21;;;;;;;6.50;1.30;;;;;;;;;;4921204;28;20102;-60
2021/05/12 11:44:47;;;;;;;6.53;1.27;;;;;;;;;;4919709;28;20850;-58
2021/05/12 11:47:13;;;;;;;4.95;1.02;;;;;;;;;;4933720;28;20892;-58
2021/05/12 11:49:39;;;;;;;4.53;1.23;;;;;;;;;;4919680;28;20027;-60
2021/05/12 11:52:05;;;;;;;2.63;0.93;;;;;;;;;;4921939;28;20078;-61
2021/05/12 11:54:31;;;;;;;5.65;1.05;;;;;;;;;;4909455;28;20027;-60
2021/05/12 11:56:58;;;;;;;5.05;0.85;;;;;;;;;;4921264;28;20102;-60
2021/05/12 11:59:25;;;;;;;5.07;1.05;;;;;;;;;;4920713;28;20054;-62
2021/05/12 12:02:00;;;;;;;4.70;1.08;;;;;;;;;;4925332;28;20094;-62
2021/05/12 12:04:36;;;;;;;5.22;0.93;;;;;;;;;;4934218;28;20031;-59
2021/05/12 12:07:03;;;;;;;4.97;0.82;;;;;;;;;;4922189;28;20166;-62
2021/05/12 12:09:32;;;;;;;4.50;1.00;;;;;;;;;;4924669;28;20043;-62
2021/05/12 12:12:04;;;;;;;4.25;1.00;;;;;;;;;;4905288;28;20035;-58
2021/05/12 12:14:47;;;;;;;3.30;0.80;;;;;;;;;;4946192;28;20050;-61
2021/05/12 12:17:13;;;;;;;6.28;1.25;;;;;;;;;;4945083;28;20042;-59
2021/05/12 12:19:41;;;;;;;3.75;1.00;;;;;;;;;;4956550;28;20169;-61
2021/05/12 12:22:08;;;;;;;3.13;1.00;;;;;;;;;;4958419;28;20790;-60
2021/05/12 12:24:37;;;;;;;1.77;0.65;;;;;;;;;;4959128;28;20034;-60
2021/05/12 12:27:03;;;;;;;5.13;1.30;;;;;;;;;;4960956;28;20044;-60
2021/05/12 12:29:30;;;;;;;4.75;1.00;;;;;;;;;;4943839;28;20133;-61
2021/05/12 12:32:00;;;;;;;3.72;0.90;;;;;;;;;;4960994;28;20056;-59
2021/05/12 12:34:32;;;;;;;6.57;0.98;;;;;;;;;;4963144;28;20133;-61
2021/05/12 12:37:12;;;;;;;7.47;1.30;;;;;;;;;;4947740;28;20026;-60
2021/05/12 12:39:57;;;;;;;5.97;1.40;;;;;;;;;;4947857;28;20130;-61
2021/05/12 12:42:28;;;;;;;4.95;1.23;;;;;;;;;;4964622;28;20045;-60
2021/05/12 12:44:55;;;;;;;3.85;0.80;;;;;;;;;;4954318;28;20042;-61
2021/05/12 12:47:33;;;;;;;4.88;1.02;;;;;;;;;;4921507;28;20040;-59
2021/05/12 12:50:06;;;;;;;4.68;0.82;;;;;;;;;;4924700;28;20027;-59
2021/05/12 12:52:33;;;;;;;3.50;1.00;;;;;;;;;;4924012;28;20027;-59
2021/05/12 12:55:18;;;;;;;5.88;1.10;;;;;;;;;;4923805;28;20423;-61
2021/05/12 12:57:48;;;;;;;4.70;0.98;;;;;;;;;;4923011;28;20047;-61
2021/05/12 13:00:19;;;;;;;6.13;1.20;;;;;;;;;;4912964;28;20054;-62
2021/05/12 13:03:06;;;;;;;3.95;1.25;;;;;;;;;;4938379;28;20246;-62
2021/05/12 13:05:31;;;;;;;4.72;1.00;;;;;;;;;;4924004;28;20098;-62
2021/05/12 13:08:14;;;;;;;4.55;1.40;;;;;;;;;;4925065;28;20039;-61
2021/05/12 13:10:44;;;;;;;4.10;1.00;;;;;;;;;;4937935;28;20043;-61
2021/05/12 13:13:26;;;;;;;3.53;0.90;;;;;;;;;;4926191;28;20039;-63
2021/05/12 13:15:55;;;;;;;5.82;1.08;;;;;;;;;;4928198;28;20046;-61
2021/05/12 13:18:24;;;;;;;8.32;1.27;;;;;;;;;;4921536;28;20031;-61
2021/05/12 13:20:53;;;;;;;2.78;1.00;;;;;;;;;;4941076;28;20142;-60
2021/05/12 13:23:46;;;;;;;4.32;1.02;;;;;;;;;;4910075;28;20027;-61
2021/05/12 13:26:13;;;;;;;8.50;1.05;;;;;;;;;;4917490;28;20046;-61
2021/05/12 13:28:39;;;;;;;2.08;0.88;;;;;;;;;;4927383;28;20055;-61
2021/05/12 13:31:05;;;;;;;6.28;0.90;;;;;;;;;;4925527;28;20039;-62
2021/05/12 13:33:33;;;;;;;4.43;0.90;;;;;;;;;;4927369;28;20034;-59
2021/05/12 13:35:59;;;;;;;4.72;0.77;;;;;;;;;;4907393;28;20034;-60
2021/05/12 13:38:26;;;;;;;3.70;1.02;;;;;;;;;;4908382;28;20035;-59
2021/05/12 13:40:57;;;;;;;6.13;0.85;;;;;;;;;;4905656;28;20082;-64
2021/05/12 13:43:28;;;;;;;4.45;1.10;;;;;;;;;;4923879;28;20055;-58
2021/05/12 13:45:57;;;;;;;3.22;0.75;;;;;;;;;;4920864;28;20389;-58
2021/05/12 13:48:23;;;;;;;2.58;0.73;;;;;;;;;;4922208;28;20038;-58
2021/05/12 13:50:49;;;;;;;4.43;0.60;;;;;;;;;;4923482;28;20134;-60
2021/05/12 13:53:33;;;;;;;4.75;1.05;;;;;;;;;;4923471;28;20028;-62
2021/05/12 14:03:57;;;;;;;4.35;0.93;;;;;;;;;;4918291;28;20170;-61
2021/05/12 14:06:35;;;;;;;5.25;1.10;;;;;;;;;;4916386;28;20047;-57
2021/05/12 14:09:20;;;;;;;3.45;0.90;;;;;;;;;;4916658;28;20031;-59
2021/05/12 14:11:54;;;;;;;4.07;0.73;;;;;;;;;;4916439;28;20031;-61
2021/05/12 14:17:02;;;;;;;5.45;1.13;;;;;;;;;;4917437;28;20042;-60
2021/05/12 14:19:28;;;;;;;1.33;0.40;;;;;;;;;;4914315;28;20027;-58
2021/05/12 14:21:57;;;;;;;5.95;1.10;;;;;;;;;;4915945;28;21890;-58
2021/05/12 14:24:27;;;;;;;3.90;0.65;;;;;;;;;;4902294;28;20046;-59
2021/05/12 14:26:54;;;;;;;3.35;1.20;;;;;;;;;;4916717;28;20038;-60
2021/05/12 14:29:29;;;;;;;4.40;1.20;;;;;;;;;;4913603;28;20043;-60
2021/05/12 14:31:56;;;;;;;3.92;0.90;;;;;;;;;;4918671;28;20036;-58
2021/05/12 14:34:21;;;;;;;1.95;0.77;;;;;;;;;;4929560;28;20585;-61
2021/05/12 14:36:50;;;;;;;5.95;1.00;;;;;;;;;;4914325;28;21387;-59
2021/05/12 14:39:16;;;;;;;3.38;0.80;;;;;;;;;;4916883;28;20071;-58
2021/05/12 14:41:47;;;;;;;4.13;0.95;;;;;;;;;;4900701;28;20512;-59
2021/05/12 14:44:13;;;;;;;5.20;0.98;;;;;;;;;;4914579;28;20063;-60
2021/05/12 14:46:38;;;;;;;5.70;0.82;;;;;;;;;;4918428;28;20042;-57
2021/05/12 14:49:05;;;;;;;5.53;0.90;;;;;;;;;;4921595;28;20043;-59
2021/05/12 14:51:35;;;;;;;4.40;0.82;;;;;;;;;;4922070;28;20183;-58
2021/05/12 14:54:08;;;;;;;6.72;1.35;;;;;;;;;;4926211;28;20078;-61
2021/05/12 14:56:43;;;;;;;3.58;0.70;;;;;;;;;;4922910;28;20032;-58
2021/05/12 14:59:33;;;;;;;4.50;0.98;;;;;;;;;;4920315;28;20126;-58